Terminal Aerodrome Forecast
Issued by NWS Albany, NY

Home | Current Version | Previous Version | Text Only | Print | Product List | Glossary On
Versions: 1 2 3 4 5 6 7 8 9 10 11 12 13 14 15 16 17 18 19 20 21
747
FTUS41 KALY 240553 CCA
TAFGFL
TAF COR
KGFL 240553Z 2406/2506 00000KT P6SM SCT120 BKN250
     FM240800 00000KT P6SM SCT060 OVC120
     FM241600 06005KT P6SM VCSH SCT030 OVC060 PROB30 2417/2423 3SM
      -SHRA BR OVC030
     FM242300 14004KT P6SM BKN080
     FM250200 VRB03KT P6SM SCT090=

USA.gov is the U.S. government's official web portal to all federal, state and local government web resources and services.